Terminal Aerodrome Forecast
Issued by NWS Wilmington, NC

Home | Current Version | Previous Version | Text Only | Print | Product List | Glossary On
Versions: 1 2 3 4 5 6 7 8 9 10 11 12 13 14 15 16 17 18 19 20 21 22
000
FTUS42 KILM 052352 CCA
TAFFLO
TAF COR
KFLO 052352Z 0600/0624 32005KT P6SM VCSH BKN050 OVC080
     FM060300 29004KT P6SM BKN060 OVC120
     FM061400 31010G15KT P6SM VCSH BKN050 OVC120
     FM061700 31012G18KT P6SM VCTS SCT040CB BKN060 OVC090=

USA.gov is the U.S. government's official web portal to all federal, state and local government web resources and services.